Time;durP1;ratioP1;P1;durP2;ratioP2;P2;SDS_P1;SDS_P2;PMS_P1;PMS_P2;Temp;Humidity;BMP_temperature;BMP_pressure;BME280_temperature;BME280_humidity;BME280_pressure;Samples;Min_cycle;Max_cycle;Signal;HPM_P1;HPM_P2
2023/01/04 00:00:20;;;;;;;8.88;4.95;;;;;;;;;;6027598;23;20033;-83
2023/01/04 00:02:46;;;;;;;8.43;4.97;;;;;;;;;;5982427;23;20042;-82
2023/01/04 00:05:11;;;;;;;8.30;4.72;;;;;;;;;;5982229;23;20094;-84
2023/01/04 00:07:37;;;;;;;7.60;4.50;;;;;;;;;;6005022;23;20014;-83
2023/01/04 00:10:04;;;;;;;9.05;4.72;;;;;;;;;;5982128;23;20531;-82
2023/01/04 00:12:29;;;;;;;9.30;4.93;;;;;;;;;;5981547;23;20038;-83
2023/01/04 00:14:54;;;;;;;7.82;4.35;;;;;;;;;;5981929;23;20023;-83
2023/01/04 00:17:20;;;;;;;7.35;4.65;;;;;;;;;;6028238;23;20012;-83
2023/01/04 00:19:45;;;;;;;7.40;4.60;;;;;;;;;;5982593;23;20018;-83
2023/01/04 00:22:10;;;;;;;9.90;4.97;;;;;;;;;;5983859;23;20015;-83
2023/01/04 00:24:36;;;;;;;7.88;4.60;;;;;;;;;;6030792;23;20015;-84
2023/01/04 00:27:01;;;;;;;8.05;4.30;;;;;;;;;;6030506;23;20046;-84
2023/01/04 00:29:27;;;;;;;8.65;4.78;;;;;;;;;;5983277;23;20050;-84
2023/01/04 00:31:52;;;;;;;7.85;4.47;;;;;;;;;;6006210;23;20019;-83
2023/01/04 00:34:18;;;;;;;7.47;4.30;;;;;;;;;;5983764;23;20007;-83
2023/01/04 00:36:44;;;;;;;8.10;4.10;;;;;;;;;;5983157;23;20537;-83
2023/01/04 00:39:13;;;;;;;6.68;3.97;;;;;;;;;;6007172;23;20444;-83
2023/01/04 00:41:42;;;;;;;8.70;4.97;;;;;;;;;;6006437;23;20019;-83
2023/01/04 00:44:09;;;;;;;9.60;4.43;;;;;;;;;;6007076;23;20022;-83
2023/01/04 00:46:34;;;;;;;7.32;4.47;;;;;;;;;;5982775;23;20044;-84
2023/01/04 00:49:00;;;;;;;8.32;4.63;;;;;;;;;;6006464;23;20019;-84
2023/01/04 00:51:27;;;;;;;7.07;4.05;;;;;;;;;;6006260;23;20723;-84
2023/01/04 00:53:52;;;;;;;6.97;4.20;;;;;;;;;;5983404;23;20022;-83
2023/01/04 00:56:18;;;;;;;7.93;4.25;;;;;;;;;;5983141;23;20015;-84
2023/01/04 00:58:44;;;;;;;6.45;3.80;;;;;;;;;;6007438;23;20101;-83
2023/01/04 01:01:09;;;;;;;8.52;3.92;;;;;;;;;;5982592;23;20019;-83
2023/01/04 01:03:35;;;;;;;8.20;4.25;;;;;;;;;;5983123;23;20094;-83
2023/01/04 01:06:04;;;;;;;7.45;4.40;;;;;;;;;;5982406;23;20027;-83
2023/01/04 01:08:31;;;;;;;7.15;4.05;;;;;;;;;;5983027;23;20034;-83
2023/01/04 01:11:07;;;;;;;7.82;4.13;;;;;;;;;;6006146;23;20042;-83
2023/01/04 01:13:34;;;;;;;8.07;4.40;;;;;;;;;;6006590;23;20398;-83
2023/01/04 01:16:11;;;;;;;7.32;4.63;;;;;;;;;;6029002;23;20019;-83
2023/01/04 01:18:38;;;;;;;7.43;4.32;;;;;;;;;;6006420;23;20600;-83
2023/01/04 01:21:05;;;;;;;8.43;4.30;;;;;;;;;;5982140;23;20044;-82
2023/01/04 01:23:30;;;;;;;8.60;4.50;;;;;;;;;;6030290;23;20013;-83
2023/01/04 01:25:59;;;;;;;7.05;3.83;;;;;;;;;;6029551;23;20024;-83
2023/01/04 01:28:25;;;;;;;8.98;4.00;;;;;;;;;;5982494;23;20019;-83
2023/01/04 01:30:50;;;;;;;7.32;3.95;;;;;;;;;;5981196;23;20058;-83
2023/01/04 01:33:16;;;;;;;7.00;4.10;;;;;;;;;;6007218;23;20317;-83
2023/01/04 01:35:41;;;;;;;6.95;3.90;;;;;;;;;;6005887;23;20023;-82
2023/01/04 01:38:06;;;;;;;6.15;3.55;;;;;;;;;;6029647;23;20035;-83
2023/01/04 01:40:32;;;;;;;7.13;3.97;;;;;;;;;;6005639;23;20061;-83
2023/01/04 01:42:57;;;;;;;7.38;3.88;;;;;;;;;;6029802;23;20079;-82
2023/01/04 01:45:31;;;;;;;8.18;3.95;;;;;;;;;;5981960;23;20094;-82
2023/01/04 01:48:03;;;;;;;9.82;4.47;;;;;;;;;;5982148;23;20028;-82
2023/01/04 01:50:32;;;;;;;7.10;3.88;;;;;;;;;;6005602;23;20023;-82
2023/01/04 01:52:59;;;;;;;7.22;3.92;;;;;;;;;;6029459;23;20019;-83
2023/01/04 01:55:25;;;;;;;8.60;4.20;;;;;;;;;;6005154;23;20135;-83
2023/01/04 01:57:51;;;;;;;5.95;3.25;;;;;;;;;;5982705;23;20039;-83
2023/01/04 02:00:16;;;;;;;6.60;3.10;;;;;;;;;;6028579;23;20074;-83
2023/01/04 02:03:10;;;;;;;7.53;3.22;;;;;;;;;;6007232;23;20400;-82
2023/01/04 02:05:36;;;;;;;7.93;3.63;;;;;;;;;;5976954;23;20031;-83
2023/01/04 02:08:03;;;;;;;6.05;3.45;;;;;;;;;;6006288;23;20025;-83
2023/01/04 02:10:29;;;;;;;6.38;3.72;;;;;;;;;;5981912;23;20018;-83
2023/01/04 02:12:55;;;;;;;6.38;3.75;;;;;;;;;;6030146;23;20019;-84
2023/01/04 02:15:22;;;;;;;5.80;3.30;;;;;;;;;;6028557;23;20507;-83
2023/01/04 02:17:59;;;;;;;7.80;3.60;;;;;;;;;;6005920;23;20034;-83
2023/01/04 02:20:56;;;;;;;6.50;3.40;;;;;;;;;;5981307;23;20019;-83
2023/01/04 02:23:44;;;;;;;6.28;3.88;;;;;;;;;;6027706;23;20026;-82
2023/01/04 02:26:47;;;;;;;6.32;3.67;;;;;;;;;;5961966;23;20089;-83
2023/01/04 02:29:35;;;;;;;6.63;3.78;;;;;;;;;;6030619;23;20098;-83
2023/01/04 02:32:10;;;;;;;5.70;3.15;;;;;;;;;;6028687;23;20727;-83
2023/01/04 02:34:40;;;;;;;5.75;3.40;;;;;;;;;;5982160;23;20034;-82
2023/01/04 02:37:20;;;;;;;6.47;3.50;;;;;;;;;;5981359;23;20027;-83
2023/01/04 02:39:57;;;;;;;6.03;3.20;;;;;;;;;;6006312;23;20023;-83
2023/01/04 02:45:32;;;;;;;6.40;3.30;;;;;;;;;;6008584;23;20098;-82
2023/01/04 02:51:00;;;;;;;7.63;3.60;;;;;;;;;;6008113;23;20069;-83
2023/01/04 02:53:37;;;;;;;6.47;3.60;;;;;;;;;;5982172;23;20015;-83
2023/01/04 02:56:11;;;;;;;7.38;3.80;;;;;;;;;;6003488;23;20038;-83
2023/01/04 02:58:39;;;;;;;5.85;3.30;;;;;;;;;;6052966;23;20328;-83
2023/01/04 03:07:46;;;;;;;6.10;3.58;;;;;;;;;;6030637;23;25111;-83
2023/01/04 03:10:18;;;;;;;8.63;3.85;;;;;;;;;;5974541;23;20027;-84
2023/01/04 03:12:51;;;;;;;6.28;3.70;;;;;;;;;;6006082;23;20019;-83
2023/01/04 03:15:21;;;;;;;6.75;3.72;;;;;;;;;;6028719;23;20030;-84
2023/01/04 03:17:51;;;;;;;7.30;3.83;;;;;;;;;;6005728;23;20019;-83
2023/01/04 03:20:19;;;;;;;6.20;3.97;;;;;;;;;;6004827;23;20079;-82
2023/01/04 03:37:13;;;;;;;5.78;3.47;;;;;;;;;;6008463;23;20026;-82
2023/01/04 03:48:57;;;;;;;7.00;3.55;;;;;;;;;;6009045;23;20030;-84
2023/01/04 03:51:28;;;;;;;14.05;5.57;;;;;;;;;;6006364;23;20035;-84
2023/01/04 03:54:02;;;;;;;7.60;4.10;;;;;;;;;;5982603;23;20359;-84
2023/01/04 03:56:28;;;;;;;7.53;3.78;;;;;;;;;;6053801;23;20132;-84
2023/01/04 03:58:54;;;;;;;8.00;3.97;;;;;;;;;;6030662;23;20781;-84
2023/01/04 04:01:20;;;;;;;7.00;4.13;;;;;;;;;;6053703;23;20089;-83
2023/01/04 04:09:13;;;;;;;6.57;3.67;;;;;;;;;;6011059;23;20119;-83
2023/01/04 04:11:38;;;;;;;5.90;3.55;;;;;;;;;;6030352;23;20090;-84
2023/01/04 04:14:04;;;;;;;8.15;3.80;;;;;;;;;;6008062;23;20019;-84
2023/01/04 04:16:29;;;;;;;6.93;3.85;;;;;;;;;;6029945;23;20021;-84
2023/01/04 04:18:55;;;;;;;6.63;3.92;;;;;;;;;;6030817;23;20360;-84
2023/01/04 04:21:20;;;;;;;6.45;3.67;;;;;;;;;;6029885;23;20020;-84
2023/01/04 04:23:46;;;;;;;7.43;3.53;;;;;;;;;;5983508;23;20042;-84
2023/01/04 04:26:11;;;;;;;7.30;3.75;;;;;;;;;;6029957;23;20023;-84
2023/01/04 04:28:38;;;;;;;6.00;3.60;;;;;;;;;;6030554;23;20015;-83
2023/01/04 04:31:04;;;;;;;6.22;3.35;;;;;;;;;;6027350;23;20098;-83
2023/01/04 04:33:29;;;;;;;8.07;3.80;;;;;;;;;;5982618;23;20035;-85
2023/01/04 04:35:54;;;;;;;7.57;3.95;;;;;;;;;;6025926;23;20039;-83
2023/01/04 04:38:20;;;;;;;8.02;3.38;;;;;;;;;;6029683;23;20112;-87
2023/01/04 04:43:31;;;;;;;6.93;3.35;;;;;;;;;;6010207;23;20014;-85
2023/01/04 04:45:57;;;;;;;6.70;3.47;;;;;;;;;;5981775;23;20023;-85
2023/01/04 04:48:22;;;;;;;6.95;4.15;;;;;;;;;;5983574;23;20528;-84
2023/01/04 04:50:48;;;;;;;6.20;3.45;;;;;;;;;;5982475;23;20015;-84
2023/01/04 04:53:13;;;;;;;7.13;3.53;;;;;;;;;;6031350;23;20464;-84
2023/01/04 04:55:38;;;;;;;7.63;3.42;;;;;;;;;;6029526;23;20023;-83
2023/01/04 04:58:04;;;;;;;5.63;3.15;;;;;;;;;;5983206;23;20019;-84
2023/01/04 05:00:29;;;;;;;7.10;3.40;;;;;;;;;;5981655;23;20015;-83
2023/01/04 05:02:58;;;;;;;5.57;3.33;;;;;;;;;;6029949;23;20027;-84
2023/01/04 05:05:23;;;;;;;6.05;3.47;;;;;;;;;;5981038;23;20404;-84
2023/01/04 05:07:48;;;;;;;5.90;3.17;;;;;;;;;;6006819;23;20015;-84
2023/01/04 05:10:14;;;;;;;5.07;3.30;;;;;;;;;;5982001;23;20018;-84
2023/01/04 05:15:23;;;;;;;6.45;3.60;;;;;;;;;;6007289;23;20065;-83
2023/01/04 05:17:48;;;;;;;7.47;3.33;;;;;;;;;;5982060;23;20019;-83
2023/01/04 05:20:14;;;;;;;6.32;3.50;;;;;;;;;;6029583;23;20106;-85
2023/01/04 05:22:39;;;;;;;6.65;3.40;;;;;;;;;;5981472;23;20030;-85
2023/01/04 05:25:07;;;;;;;7.22;3.40;;;;;;;;;;6028843;23;20034;-85
2023/01/04 05:27:32;;;;;;;6.68;3.50;;;;;;;;;;6005374;23;20102;-84
2023/01/04 05:32:42;;;;;;;5.93;3.50;;;;;;;;;;6049219;23;20026;-84
2023/01/04 05:35:08;;;;;;;5.45;3.05;;;;;;;;;;5980571;23;20020;-84
2023/01/04 05:37:33;;;;;;;6.07;3.22;;;;;;;;;;6004206;23;20555;-84
2023/01/04 05:39:58;;;;;;;6.10;2.97;;;;;;;;;;6027839;23;20026;-85
2023/01/04 05:42:24;;;;;;;5.30;3.13;;;;;;;;;;5981858;23;20079;-86
2023/01/04 05:44:50;;;;;;;4.82;2.97;;;;;;;;;;5981414;23;20015;-85
2023/01/04 05:47:15;;;;;;;6.13;3.40;;;;;;;;;;6006242;23;20347;-84
2023/01/04 05:49:41;;;;;;;6.75;3.00;;;;;;;;;;6029632;23;20027;-84
2023/01/04 05:52:06;;;;;;;5.05;2.63;;;;;;;;;;6005872;23;20343;-83
2023/01/04 05:54:31;;;;;;;5.80;3.08;;;;;;;;;;6029571;23;20011;-83
2023/01/04 05:56:57;;;;;;;5.28;2.88;;;;;;;;;;5982317;23;20019;-82
2023/01/04 05:59:22;;;;;;;5.00;2.78;;;;;;;;;;6030496;23;20147;-82
2023/01/04 06:01:47;;;;;;;5.55;2.85;;;;;;;;;;5982640;23;20008;-82
2023/01/04 06:04:13;;;;;;;5.65;2.90;;;;;;;;;;5981744;23;20359;-82
2023/01/04 06:06:38;;;;;;;4.68;2.70;;;;;;;;;;6053016;23;20494;-82
2023/01/04 06:09:04;;;;;;;4.85;2.80;;;;;;;;;;5983401;23;20023;-83
2023/01/04 06:11:29;;;;;;;5.10;2.65;;;;;;;;;;6029242;23;20332;-84
2023/01/04 06:13:54;;;;;;;6.13;2.78;;;;;;;;;;5982940;23;20030;-83
2023/01/04 06:16:20;;;;;;;7.43;2.90;;;;;;;;;;6028630;23;20023;-84
2023/01/04 06:18:45;;;;;;;4.60;2.95;;;;;;;;;;5983045;23;20019;-83
2023/01/04 06:21:11;;;;;;;5.32;2.50;;;;;;;;;;6029421;23;20343;-82
2023/01/04 06:23:36;;;;;;;5.78;2.78;;;;;;;;;;5982760;23;20026;-84
2023/01/04 06:26:01;;;;;;;5.65;2.40;;;;;;;;;;6028985;23;20349;-84
2023/01/04 06:28:28;;;;;;;4.88;2.55;;;;;;;;;;5982451;23;20012;-83
2023/01/04 06:30:53;;;;;;;5.03;2.47;;;;;;;;;;5981852;23;20034;-82
2023/01/04 06:33:19;;;;;;;3.83;2.03;;;;;;;;;;6029604;23;20049;-82
2023/01/04 06:35:51;;;;;;;4.60;2.00;;;;;;;;;;5982643;23;20015;-82
2023/01/04 06:38:17;;;;;;;5.45;2.20;;;;;;;;;;5982545;23;20468;-82
2023/01/04 06:40:51;;;;;;;4.50;2.30;;;;;;;;;;6029526;23;20015;-83
2023/01/04 06:43:17;;;;;;;4.32;2.13;;;;;;;;;;6029726;23;20097;-81
2023/01/04 06:45:42;;;;;;;5.00;1.80;;;;;;;;;;5982350;23;20074;-82
2023/01/04 06:48:08;;;;;;;4.47;2.17;;;;;;;;;;6029791;23;20443;-83
2023/01/04 06:50:33;;;;;;;2.90;1.75;;;;;;;;;;6004547;23;20019;-82
2023/01/04 06:52:59;;;;;;;4.40;2.10;;;;;;;;;;5982478;23;20063;-83
2023/01/04 06:55:24;;;;;;;4.57;2.00;;;;;;;;;;5981868;23;20039;-82
2023/01/04 06:57:50;;;;;;;4.32;1.63;;;;;;;;;;6030581;23;20094;-84
2023/01/04 07:00:15;;;;;;;3.90;1.75;;;;;;;;;;5982227;23;20011;-82
2023/01/04 07:02:41;;;;;;;2.70;1.40;;;;;;;;;;5982330;23;20020;-84
2023/01/04 07:05:06;;;;;;;5.05;1.83;;;;;;;;;;6028911;23;20078;-81
2023/01/04 07:07:33;;;;;;;4.97;1.80;;;;;;;;;;6029154;23;20036;-83
2023/01/04 07:09:58;;;;;;;3.53;1.67;;;;;;;;;;5982544;23;20023;-82
2023/01/04 07:12:24;;;;;;;3.70;1.75;;;;;;;;;;5982055;23;20031;-82
2023/01/04 07:14:49;;;;;;;3.15;1.45;;;;;;;;;;6006277;23;20026;-82
2023/01/04 07:17:14;;;;;;;5.53;1.90;;;;;;;;;;5982029;23;20027;-82
2023/01/04 07:19:40;;;;;;;3.20;1.60;;;;;;;;;;6028927;23;20022;-83
2023/01/04 07:22:05;;;;;;;3.28;1.67;;;;;;;;;;5981455;23;20061;-82
2023/01/04 07:24:31;;;;;;;4.72;1.88;;;;;;;;;;5981813;23;20713;-83
2023/01/04 07:26:58;;;;;;;3.60;1.67;;;;;;;;;;6028899;23;20042;-84
2023/01/04 07:29:24;;;;;;;6.05;1.92;;;;;;;;;;5982243;23;20074;-83
2023/01/04 07:31:50;;;;;;;3.65;1.85;;;;;;;;;;6030525;23;20456;-83
2023/01/04 07:34:18;;;;;;;4.30;2.00;;;;;;;;;;6008447;23;20460;-84
2023/01/04 07:36:44;;;;;;;3.80;1.70;;;;;;;;;;5983099;23;20707;-84
2023/01/04 07:39:11;;;;;;;4.90;1.70;;;;;;;;;;5983259;23;20015;-83
2023/01/04 07:41:40;;;;;;;5.18;2.03;;;;;;;;;;5983591;23;20159;-84
2023/01/04 07:44:06;;;;;;;3.28;1.70;;;;;;;;;;5984268;23;20026;-83
2023/01/04 07:46:32;;;;;;;3.30;1.75;;;;;;;;;;6007271;23;20023;-83
2023/01/04 07:48:57;;;;;;;3.72;1.80;;;;;;;;;;6031474;23;20034;-82
2023/01/04 07:51:23;;;;;;;3.88;1.67;;;;;;;;;;5983342;23;20351;-83
2023/01/04 07:53:49;;;;;;;6.43;1.90;;;;;;;;;;5984711;23;20478;-82
2023/01/04 07:56:14;;;;;;;4.82;1.85;;;;;;;;;;5983289;23;20094;-83
2023/01/04 07:58:40;;;;;;;6.18;2.00;;;;;;;;;;5983685;23;20019;-82
2023/01/04 08:01:11;;;;;;;4.68;1.90;;;;;;;;;;5983257;23;20102;-83
2023/01/04 08:03:37;;;;;;;3.90;1.70;;;;;;;;;;5984081;23;20023;-84
2023/01/04 08:06:04;;;;;;;4.00;1.80;;;;;;;;;;5982653;23;20028;-84
2023/01/04 08:08:29;;;;;;;4.05;1.90;;;;;;;;;;6007030;23;20019;-84
2023/01/04 08:10:55;;;;;;;3.63;1.80;;;;;;;;;;5982162;23;20019;-84
2023/01/04 08:13:20;;;;;;;4.22;1.70;;;;;;;;;;5983518;23;20019;-84
2023/01/04 08:15:53;;;;;;;5.63;2.30;;;;;;;;;;5983021;23;20027;-84
2023/01/04 08:18:18;;;;;;;4.90;2.08;;;;;;;;;;6030597;23;20023;-82
2023/01/04 08:20:44;;;;;;;5.53;2.20;;;;;;;;;;5983323;23;20023;-84
2023/01/04 08:23:09;;;;;;;3.70;1.85;;;;;;;;;;6030546;23;20015;-84
2023/01/04 08:25:34;;;;;;;5.28;1.95;;;;;;;;;;5982165;23;20082;-83
2023/01/04 08:28:00;;;;;;;5.32;1.83;;;;;;;;;;6007099;23;20019;-83
2023/01/04 08:30:25;;;;;;;5.45;2.20;;;;;;;;;;6005799;23;20015;-83
2023/01/04 08:32:52;;;;;;;3.65;1.92;;;;;;;;;;6030894;23;20019;-84
2023/01/04 08:35:18;;;;;;;3.70;2.17;;;;;;;;;;6029494;23;20039;-83
2023/01/04 08:37:43;;;;;;;6.13;2.05;;;;;;;;;;5984094;23;20275;-84
2023/01/04 08:40:09;;;;;;;5.00;2.15;;;;;;;;;;6030135;23;20016;-84
2023/01/04 08:42:35;;;;;;;4.30;2.10;;;;;;;;;;5983032;23;20321;-84
2023/01/04 08:45:00;;;;;;;3.78;1.80;;;;;;;;;;5982852;23;20023;-84
2023/01/04 08:47:27;;;;;;;4.93;1.80;;;;;;;;;;6029613;23;20329;-83
2023/01/04 08:49:53;;;;;;;4.45;2.15;;;;;;;;;;6007300;23;20023;-83
2023/01/04 08:52:18;;;;;;;4.45;2.20;;;;;;;;;;5982860;23;20015;-84
2023/01/04 08:54:44;;;;;;;4.85;2.20;;;;;;;;;;5983623;23;20018;-84
2023/01/04 08:57:09;;;;;;;5.90;2.53;;;;;;;;;;5982120;23;20015;-84
2023/01/04 08:59:35;;;;;;;4.10;2.20;;;;;;;;;;5983281;23;20044;-85
2023/01/04 09:02:00;;;;;;;5.45;2.83;;;;;;;;;;6029988;23;20022;-84
2023/01/04 09:04:25;;;;;;;6.63;2.72;;;;;;;;;;6029917;23;20025;-84
2023/01/04 09:07:11;;;;;;;5.75;2.25;;;;;;;;;;6030444;23;20356;-85
2023/01/04 09:09:36;;;;;;;10.02;2.88;;;;;;;;;;6000562;23;20043;-84
2023/01/04 09:12:02;;;;;;;7.93;2.90;;;;;;;;;;5953286;23;20364;-84
2023/01/04 09:14:27;;;;;;;5.93;2.67;;;;;;;;;;5976824;23;20020;-84
2023/01/04 09:16:52;;;;;;;8.57;3.05;;;;;;;;;;5952970;23;20032;-84
2023/01/04 09:19:18;;;;;;;4.55;2.40;;;;;;;;;;5953272;23;20024;-83
2023/01/04 09:21:43;;;;;;;6.32;2.25;;;;;;;;;;5975833;23;20023;-84
2023/01/04 09:24:09;;;;;;;4.45;2.35;;;;;;;;;;5977466;23;20031;-85
2023/01/04 09:26:34;;;;;;;5.45;2.70;;;;;;;;;;5975980;23;20026;-85
2023/01/04 09:28:59;;;;;;;6.45;2.90;;;;;;;;;;5976946;23;20060;-83
2023/01/04 09:31:26;;;;;;;5.25;2.53;;;;;;;;;;5998743;23;20016;-83
2023/01/04 09:33:52;;;;;;;4.73;2.70;;;;;;;;;;5977973;23;20500;-85
2023/01/04 09:36:18;;;;;;;6.65;2.80;;;;;;;;;;5999622;23;20019;-83
2023/01/04 09:38:44;;;;;;;5.85;2.78;;;;;;;;;;5977313;23;20975;-86
2023/01/04 09:41:12;;;;;;;6.55;2.72;;;;;;;;;;5953003;23;20020;-85
2023/01/04 09:43:49;;;;;;;7.10;3.20;;;;;;;;;;6000321;23;20389;-84
2023/01/04 09:46:37;;;;;;;5.13;2.60;;;;;;;;;;5963887;23;20015;-85
2023/01/04 09:49:33;;;;;;;5.72;2.92;;;;;;;;;;5983098;23;20482;-85
2023/01/04 09:52:03;;;;;;;6.15;2.88;;;;;;;;;;5962484;23;20022;-86
2023/01/04 09:54:40;;;;;;;8.40;3.10;;;;;;;;;;5982308;23;20673;-84
2023/01/04 09:57:17;;;;;;;6.63;2.97;;;;;;;;;;5983431;23;20037;-85
2023/01/04 09:59:43;;;;;;;7.63;3.00;;;;;;;;;;6006398;23;20026;-83
2023/01/04 10:02:14;;;;;;;5.85;2.78;;;;;;;;;;5982284;23;20022;-84
2023/01/04 10:04:48;;;;;;;8.35;2.78;;;;;;;;;;5981581;23;20086;-85
2023/01/04 10:07:19;;;;;;;5.72;2.67;;;;;;;;;;5982809;23;20069;-84
2023/01/04 10:09:45;;;;;;;6.63;3.30;;;;;;;;;;6006537;23;20075;-86
2023/01/04 10:12:16;;;;;;;5.70;2.92;;;;;;;;;;6028947;23;20011;-85
2023/01/04 10:15:18;;;;;;;5.70;2.92;;;;;;;;;;6052727;23;20448;-85
2023/01/04 10:18:21;;;;;;;6.20;3.20;;;;;;;;;;6006183;23;20011;-86
2023/01/04 10:20:47;;;;;;;4.70;2.80;;;;;;;;;;6000685;23;20015;-85
2023/01/04 10:23:51;;;;;;;7.60;2.85;;;;;;;;;;6032346;23;20090;-85
2023/01/04 10:26:41;;;;;;;5.93;2.85;;;;;;;;;;6004879;23;20011;-84
2023/01/04 10:29:37;;;;;;;4.97;2.83;;;;;;;;;;6006296;23;20031;-85
2023/01/04 10:32:12;;;;;;;6.65;3.05;;;;;;;;;;6028699;23;20027;-85
2023/01/04 10:34:45;;;;;;;6.82;3.42;;;;;;;;;;5981688;23;20027;-84
2023/01/04 10:37:22;;;;;;;6.07;2.80;;;;;;;;;;5981194;23;20468;-85
2023/01/04 10:39:54;;;;;;;5.53;2.80;;;;;;;;;;6028765;23;20075;-84
2023/01/04 10:42:25;;;;;;;5.18;2.90;;;;;;;;;;6005672;23;20531;-85
2023/01/04 10:45:14;;;;;;;6.05;3.20;;;;;;;;;;6030680;23;20379;-86
2023/01/04 10:47:58;;;;;;;5.93;3.13;;;;;;;;;;6028753;23;20459;-85
2023/01/04 10:50:29;;;;;;;5.10;2.72;;;;;;;;;;6029037;23;20024;-85
2023/01/04 10:53:00;;;;;;;5.10;2.70;;;;;;;;;;6029894;23;20023;-84
2023/01/04 10:55:30;;;;;;;6.28;2.85;;;;;;;;;;5981401;23;20464;-84
2023/01/04 10:58:05;;;;;;;5.25;3.00;;;;;;;;;;5983056;23;20027;-84
2023/01/04 11:00:50;;;;;;;4.55;2.50;;;;;;;;;;6005155;23;20007;-84
2023/01/04 11:03:37;;;;;;;5.60;2.70;;;;;;;;;;5981671;23;20419;-84
2023/01/04 11:06:15;;;;;;;6.70;2.97;;;;;;;;;;6028270;23;20109;-84
2023/01/04 11:08:53;;;;;;;7.18;2.88;;;;;;;;;;6005695;23;20047;-84
2023/01/04 11:11:24;;;;;;;7.43;2.90;;;;;;;;;;6028155;23;20142;-85
2023/01/04 11:13:50;;;;;;;6.15;3.13;;;;;;;;;;6005638;23;20023;-84
2023/01/04 11:16:16;;;;;;;6.05;3.03;;;;;;;;;;5981848;23;20015;-84
2023/01/04 11:18:42;;;;;;;5.85;3.10;;;;;;;;;;5982106;23;20015;-85
2023/01/04 11:21:11;;;;;;;7.50;3.22;;;;;;;;;;5982132;23;20324;-84
2023/01/04 11:23:37;;;;;;;5.80;3.08;;;;;;;;;;6030226;23;20024;-85
2023/01/04 11:26:19;;;;;;;5.60;2.85;;;;;;;;;;6005582;23;20047;-85
2023/01/04 11:28:51;;;;;;;6.78;3.05;;;;;;;;;;5983134;23;20023;-85
2023/01/04 11:31:43;;;;;;;6.30;3.00;;;;;;;;;;6028694;23;20015;-85
2023/01/04 11:34:09;;;;;;;6.57;2.60;;;;;;;;;;6005901;23;20030;-85
2023/01/04 11:36:39;;;;;;;4.28;2.53;;;;;;;;;;6016832;23;20019;-84
2023/01/04 11:39:06;;;;;;;5.13;2.47;;;;;;;;;;6006361;23;20440;-85
2023/01/04 11:41:31;;;;;;;4.60;2.30;;;;;;;;;;6004124;23;20019;-86
2023/01/04 11:44:03;;;;;;;3.85;2.08;;;;;;;;;;6006095;23;20042;-86
2023/01/04 11:46:30;;;;;;;6.70;2.40;;;;;;;;;;5982009;23;20018;-85
2023/01/04 11:48:55;;;;;;;4.50;2.00;;;;;;;;;;6005600;23;20086;-85
2023/01/04 11:51:27;;;;;;;3.70;2.17;;;;;;;;;;6004894;23;20503;-85
2023/01/04 11:54:14;;;;;;;3.60;2.00;;;;;;;;;;6006702;23;20106;-85
2023/01/04 11:57:09;;;;;;;4.60;2.35;;;;;;;;;;6052579;23;20035;-84
2023/01/04 11:59:35;;;;;;;3.75;2.05;;;;;;;;;;5981994;23;20015;-84
2023/01/04 12:02:20;;;;;;;4.72;1.95;;;;;;;;;;5981382;23;20030;-85
2023/01/04 12:04:46;;;;;;;4.38;2.20;;;;;;;;;;6028648;23;20384;-85
2023/01/04 12:07:24;;;;;;;4.40;2.13;;;;;;;;;;5981616;23;20019;-84
2023/01/04 12:09:49;;;;;;;4.03;2.00;;;;;;;;;;6005340;23;20035;-85
2023/01/04 12:12:15;;;;;;;3.97;2.00;;;;;;;;;;5982364;23;20347;-84
2023/01/04 12:14:47;;;;;;;4.68;2.40;;;;;;;;;;6028987;23;20015;-84
2023/01/04 12:17:12;;;;;;;4.00;2.22;;;;;;;;;;6007077;23;20015;-85
2023/01/04 12:19:40;;;;;;;4.35;2.20;;;;;;;;;;6005997;23;20022;-84
2023/01/04 12:22:18;;;;;;;5.78;2.30;;;;;;;;;;6006951;23;20352;-85
2023/01/04 12:24:44;;;;;;;4.53;2.35;;;;;;;;;;5983913;23;20023;-85
2023/01/04 12:27:12;;;;;;;3.55;1.92;;;;;;;;;;6007007;23;20075;-85
2023/01/04 12:29:43;;;;;;;3.97;1.98;;;;;;;;;;5983450;23;20079;-85
2023/01/04 12:32:12;;;;;;;3.58;1.98;;;;;;;;;;6006572;23;20459;-84
2023/01/04 12:34:42;;;;;;;7.10;2.17;;;;;;;;;;6006411;23;20359;-84
2023/01/04 12:37:08;;;;;;;4.32;2.40;;;;;;;;;;5983134;23;20400;-85
2023/01/04 12:39:42;;;;;;;4.25;1.95;;;;;;;;;;5983911;23;20106;-85
2023/01/04 12:42:18;;;;;;;4.80;1.95;;;;;;;;;;6031007;23;20023;-84
2023/01/04 12:44:46;;;;;;;3.65;1.90;;;;;;;;;;6030989;23;20050;-84
2023/01/04 12:50:13;;;;;;;4.30;1.95;;;;;;;;;;5978258;23;20085;-85
2023/01/04 12:52:49;;;;;;;4.20;2.10;;;;;;;;;;6006627;23;20539;-87
2023/01/04 12:55:32;;;;;;;3.78;1.85;;;;;;;;;;6029789;23;20024;-87
2023/01/04 12:57:59;;;;;;;3.88;2.00;;;;;;;;;;6032052;23;20102;-88
2023/01/04 13:00:50;;;;;;;4.20;2.20;;;;;;;;;;6005020;23;20355;-87
2023/01/04 13:03:18;;;;;;;3.97;2.00;;;;;;;;;;6031773;23;20784;-87
2023/01/04 13:05:59;;;;;;;3.72;2.20;;;;;;;;;;5991340;23;20028;-87
2023/01/04 13:08:25;;;;;;;5.43;2.40;;;;;;;;;;6005800;23;20519;-87
2023/01/04 13:10:54;;;;;;;4.50;2.40;;;;;;;;;;5981373;23;20107;-87
2023/01/04 13:13:37;;;;;;;4.70;2.45;;;;;;;;;;6006491;23;20043;-88
2023/01/04 13:16:23;;;;;;;5.75;2.80;;;;;;;;;;6053094;23;20023;-87
2023/01/04 13:18:49;;;;;;;4.13;1.98;;;;;;;;;;5951082;23;20019;-89
2023/01/04 13:21:28;;;;;;;4.40;2.42;;;;;;;;;;5982230;23;20052;-88
2023/01/04 13:23:55;;;;;;;4.90;2.20;;;;;;;;;;6029572;23;20502;-88
2023/01/04 13:26:39;;;;;;;5.22;2.20;;;;;;;;;;5959384;23;20478;-86
2023/01/04 13:29:20;;;;;;;4.70;2.60;;;;;;;;;;6019639;23;20052;-86
2023/01/04 13:31:54;;;;;;;3.90;2.33;;;;;;;;;;6051549;23;20387;-87
2023/01/04 13:34:22;;;;;;;4.85;2.50;;;;;;;;;;6006053;23;20030;-86
2023/01/04 13:36:54;;;;;;;4.45;2.60;;;;;;;;;;6052142;23;20016;-85
2023/01/04 13:39:20;;;;;;;4.57;2.58;;;;;;;;;;5982104;23;20393;-87
2023/01/04 13:41:45;;;;;;;4.65;2.33;;;;;;;;;;5981735;23;20015;-86
2023/01/04 13:44:21;;;;;;;4.93;2.40;;;;;;;;;;6029494;23;20019;-87
2023/01/04 13:46:47;;;;;;;6.93;2.70;;;;;;;;;;5981786;23;20062;-87
2023/01/04 13:49:14;;;;;;;4.57;2.80;;;;;;;;;;6029844;23;20017;-86
2023/01/04 13:51:40;;;;;;;4.78;2.70;;;;;;;;;;5981827;23;20038;-87
2023/01/04 13:54:20;;;;;;;4.38;2.30;;;;;;;;;;6026883;23;20019;-88
2023/01/04 13:56:45;;;;;;;5.28;2.53;;;;;;;;;;5981766;23;20395;-86
2023/01/04 13:59:11;;;;;;;4.63;2.80;;;;;;;;;;6028334;23;20094;-86
2023/01/04 14:01:57;;;;;;;4.43;2.30;;;;;;;;;;6004567;23;20030;-87
2023/01/04 14:04:25;;;;;;;4.10;2.23;;;;;;;;;;5919425;24;20028;-85
2023/01/04 14:06:53;;;;;;;5.22;2.50;;;;;;;;;;5895842;24;20249;-86
2023/01/04 14:09:24;;;;;;;4.88;2.58;;;;;;;;;;5898278;24;20024;-86
2023/01/04 14:12:02;;;;;;;5.18;2.13;;;;;;;;;;5896154;24;20051;-87
2023/01/04 14:14:47;;;;;;;5.57;2.80;;;;;;;;;;5921481;24;20016;-86
2023/01/04 14:17:19;;;;;;;5.00;2.63;;;;;;;;;;5919731;24;20020;-87
2023/01/04 14:20:03;;;;;;;5.28;2.75;;;;;;;;;;5896671;24;20017;-87
2023/01/04 14:22:34;;;;;;;4.50;2.70;;;;;;;;;;5896348;24;20682;-87
2023/01/04 14:25:21;;;;;;;3.97;2.28;;;;;;;;;;5904815;24;20496;-87
2023/01/04 14:27:47;;;;;;;3.47;2.17;;;;;;;;;;5905485;24;20411;-87
2023/01/04 14:30:18;;;;;;;4.85;2.40;;;;;;;;;;5941831;24;20025;-87
2023/01/04 14:33:13;;;;;;;4.95;2.35;;;;;;;;;;5920026;24;20019;-86
2023/01/04 14:35:38;;;;;;;5.38;2.80;;;;;;;;;;5896684;24;20029;-87
2023/01/04 14:38:05;;;;;;;4.22;2.22;;;;;;;;;;5896947;24;20021;-86
2023/01/04 14:40:31;;;;;;;5.07;2.50;;;;;;;;;;5907222;23;20101;-86
2023/01/04 14:42:56;;;;;;;4.30;2.08;;;;;;;;;;5982163;23;20027;-87
2023/01/04 14:45:22;;;;;;;4.15;2.30;;;;;;;;;;5980978;23;20019;-87
2023/01/04 14:47:47;;;;;;;4.15;2.40;;;;;;;;;;6028485;23;20023;-86
2023/01/04 14:50:14;;;;;;;4.10;2.17;;;;;;;;;;6005772;23;20020;-85
2023/01/04 14:52:40;;;;;;;5.47;2.10;;;;;;;;;;6004486;23;20403;-87
2023/01/04 14:55:05;;;;;;;5.18;2.38;;;;;;;;;;5981910;23;20020;-86
2023/01/04 14:57:32;;;;;;;3.95;2.20;;;;;;;;;;6004935;23;20019;-86
2023/01/04 14:59:57;;;;;;;5.85;2.30;;;;;;;;;;6005526;23;20355;-87
2023/01/04 15:02:25;;;;;;;4.20;1.85;;;;;;;;;;6027916;23;20063;-86
2023/01/04 15:04:51;;;;;;;4.07;1.98;;;;;;;;;;5980994;23;20031;-86
2023/01/04 15:07:38;;;;;;;4.03;1.83;;;;;;;;;;6027750;23;20622;-86
2023/01/04 15:10:04;;;;;;;;;;;;;;;;;;6017912;23;20521;-86
2023/01/04 15:12:33;;;;;;;3.13;1.60;;;;;;;;;;5984801;23;19948;-86
2023/01/04 15:14:58;;;;;;;3.72;1.63;;;;;;;;;;6004292;23;20019;-86
2023/01/04 15:17:26;;;;;;;5.47;2.00;;;;;;;;;;5980186;23;20030;-86
2023/01/04 15:19:52;;;;;;;3.90;2.00;;;;;;;;;;6004825;23;20107;-86
2023/01/04 15:22:17;;;;;;;4.15;1.95;;;;;;;;;;6027839;23;20050;-86
2023/01/04 15:24:43;;;;;;;3.85;2.00;;;;;;;;;;5980912;23;20098;-86
2023/01/04 15:27:08;;;;;;;4.60;2.00;;;;;;;;;;5981525;23;20098;-87
2023/01/04 15:29:33;;;;;;;4.00;2.20;;;;;;;;;;6004119;23;20351;-86
2023/01/04 15:31:59;;;;;;;3.33;1.85;;;;;;;;;;6004687;23;20027;-86
2023/01/04 15:34:24;;;;;;;2.90;1.63;;;;;;;;;;6029228;23;20015;-85
2023/01/04 15:36:50;;;;;;;3.63;2.00;;;;;;;;;;6004184;23;20022;-86
2023/01/04 15:39:16;;;;;;;5.18;1.88;;;;;;;;;;6029718;23;20039;-87
2023/01/04 15:44:26;;;;;;;3.55;1.45;;;;;;;;;;6008239;23;20343;-85
2023/01/04 15:46:52;;;;;;;2.97;1.48;;;;;;;;;;5980437;23;20027;-86
2023/01/04 15:49:17;;;;;;;2.95;1.40;;;;;;;;;;5982579;23;20023;-87
2023/01/04 15:51:43;;;;;;;3.00;1.45;;;;;;;;;;5981590;23;20026;-86